sensor_id;sensor_type;location;lat;lon;timestamp;P1;durP1;ratioP1;P2;durP2;ratioP2
45274;SDS011;31019;43.780;25.948;2023-06-22T00:01:12;250.85;;;233.90;;
45274;SDS011;31019;43.780;25.948;2023-06-22T00:03:39;279.05;;;260.30;;
45274;SDS011;31019;43.780;25.948;2023-06-22T00:06:06;314.15;;;292.98;;
45274;SDS011;31019;43.780;25.948;2023-06-22T00:08:33;279.55;;;260.77;;
45274;SDS011;31019;43.780;25.948;2023-06-22T00:11:00;274.73;;;257.08;;
45274;SDS011;31019;43.780;25.948;2023-06-22T00:13:27;284.13;;;265.77;;
45274;SDS011;31019;43.780;25.948;2023-06-22T00:15:55;279.45;;;260.65;;
45274;SDS011;31019;43.780;25.948;2023-06-22T00:18:22;265.17;;;247.77;;
45274;SDS011;31019;43.780;25.948;2023-06-22T00:20:58;269.40;;;252.25;;
45274;SDS011;31019;43.780;25.948;2023-06-22T00:26:02;275.13;;;257.52;;
45274;SDS011;31019;43.780;25.948;2023-06-22T00:28:29;273.00;;;255.38;;
45274;SDS011;31019;43.780;25.948;2023-06-22T00:30:57;140.07;;;128.10;;
45274;SDS011;31019;43.780;25.948;2023-06-22T00:33:25;137.27;;;125.38;;
45274;SDS011;31019;43.780;25.948;2023-06-22T00:35:53;124.72;;;113.53;;
45274;SDS011;31019;43.780;25.948;2023-06-22T00:38:20;136.65;;;124.40;;
45274;SDS011;31019;43.780;25.948;2023-06-22T00:40:47;137.52;;;125.35;;
45274;SDS011;31019;43.780;25.948;2023-06-22T00:43:14;140.00;;;127.40;;
45274;SDS011;31019;43.780;25.948;2023-06-22T00:45:41;149.65;;;136.35;;
45274;SDS011;31019;43.780;25.948;2023-06-22T00:48:09;127.40;;;115.38;;
45274;SDS011;31019;43.780;25.948;2023-06-22T00:50:36;134.40;;;121.90;;
45274;SDS011;31019;43.780;25.948;2023-06-22T00:53:03;131.20;;;118.80;;
45274;SDS011;31019;43.780;25.948;2023-06-22T00:55:33;130.75;;;118.88;;
45274;SDS011;31019;43.780;25.948;2023-06-22T00:58:03;132.30;;;120.18;;
45274;SDS011;31019;43.780;25.948;2023-06-22T01:00:35;126.30;;;115.00;;
45274;SDS011;31019;43.780;25.948;2023-06-22T01:03:02;126.43;;;114.95;;
45274;SDS011;31019;43.780;25.948;2023-06-22T01:05:35;118.32;;;107.57;;
45274;SDS011;31019;43.780;25.948;2023-06-22T01:08:07;149.45;;;136.20;;
45274;SDS011;31019;43.780;25.948;2023-06-22T01:10:43;118.85;;;107.75;;
45274;SDS011;31019;43.780;25.948;2023-06-22T01:13:16;126.55;;;114.72;;
45274;SDS011;31019;43.780;25.948;2023-06-22T01:15:50;124.45;;;113.05;;
45274;SDS011;31019;43.780;25.948;2023-06-22T01:18:22;128.32;;;116.93;;
45274;SDS011;31019;43.780;25.948;2023-06-22T01:20:54;119.78;;;109.15;;
45274;SDS011;31019;43.780;25.948;2023-06-22T01:23:26;133.65;;;121.03;;
45274;SDS011;31019;43.780;25.948;2023-06-22T01:25:59;123.07;;;111.68;;
45274;SDS011;31019;43.780;25.948;2023-06-22T01:28:39;128.57;;;117.10;;
45274;SDS011;31019;43.780;25.948;2023-06-22T01:31:12;129.90;;;118.13;;
45274;SDS011;31019;43.780;25.948;2023-06-22T01:33:43;137.20;;;124.15;;
45274;SDS011;31019;43.780;25.948;2023-06-22T01:36:11;125.80;;;114.10;;
45274;SDS011;31019;43.780;25.948;2023-06-22T01:38:40;121.60;;;110.32;;
45274;SDS011;31019;43.780;25.948;2023-06-22T01:41:08;118.80;;;107.28;;
45274;SDS011;31019;43.780;25.948;2023-06-22T01:43:40;123.85;;;112.60;;
45274;SDS011;31019;43.780;25.948;2023-06-22T01:46:08;128.55;;;116.35;;
45274;SDS011;31019;43.780;25.948;2023-06-22T01:48:35;133.88;;;122.03;;
45274;SDS011;31019;43.780;25.948;2023-06-22T01:51:02;130.07;;;118.22;;
45274;SDS011;31019;43.780;25.948;2023-06-22T01:53:29;122.45;;;110.80;;
45274;SDS011;31019;43.780;25.948;2023-06-22T01:55:56;130.50;;;118.43;;
45274;SDS011;31019;43.780;25.948;2023-06-22T01:58:25;129.27;;;117.15;;
45274;SDS011;31019;43.780;25.948;2023-06-22T02:00:55;136.35;;;124.13;;
45274;SDS011;31019;43.780;25.948;2023-06-22T02:03:26;120.18;;;108.90;;
45274;SDS011;31019;43.780;25.948;2023-06-22T02:06:04;127.68;;;116.28;;
45274;SDS011;31019;43.780;25.948;2023-06-22T02:08:40;120.70;;;109.80;;
45274;SDS011;31019;43.780;25.948;2023-06-22T02:11:11;120.35;;;109.47;;
45274;SDS011;31019;43.780;25.948;2023-06-22T02:13:41;118.13;;;106.80;;
45274;SDS011;31019;43.780;25.948;2023-06-22T02:16:10;119.40;;;108.68;;
45274;SDS011;31019;43.780;25.948;2023-06-22T02:18:38;127.05;;;115.55;;
45274;SDS011;31019;43.780;25.948;2023-06-22T02:21:11;112.40;;;102.10;;
45274;SDS011;31019;43.780;25.948;2023-06-22T02:23:38;111.88;;;101.22;;
45274;SDS011;31019;43.780;25.948;2023-06-22T02:26:05;116.45;;;105.68;;
45274;SDS011;31019;43.780;25.948;2023-06-22T02:28:32;111.68;;;101.28;;
45274;SDS011;31019;43.780;25.948;2023-06-22T02:30:59;101.30;;;91.35;;
45274;SDS011;31019;43.780;25.948;2023-06-22T02:33:27;108.65;;;99.25;;
45274;SDS011;31019;43.780;25.948;2023-06-22T02:35:54;96.55;;;87.20;;
45274;SDS011;31019;43.780;25.948;2023-06-22T02:38:21;96.97;;;87.72;;
45274;SDS011;31019;43.780;25.948;2023-06-22T02:40:49;95.18;;;85.68;;
45274;SDS011;31019;43.780;25.948;2023-06-22T02:43:16;97.25;;;87.60;;
45274;SDS011;31019;43.780;25.948;2023-06-22T02:45:43;91.78;;;82.85;;
45274;SDS011;31019;43.780;25.948;2023-06-22T02:48:11;96.45;;;87.63;;
45274;SDS011;31019;43.780;25.948;2023-06-22T02:50:40;88.55;;;79.88;;
45274;SDS011;31019;43.780;25.948;2023-06-22T02:53:07;91.95;;;83.05;;
45274;SDS011;31019;43.780;25.948;2023-06-22T02:55:34;92.50;;;83.57;;
45274;SDS011;31019;43.780;25.948;2023-06-22T02:58:01;87.50;;;79.20;;
45274;SDS011;31019;43.780;25.948;2023-06-22T03:00:30;96.57;;;87.63;;
45274;SDS011;31019;43.780;25.948;2023-06-22T03:02:57;87.80;;;79.15;;
45274;SDS011;31019;43.780;25.948;2023-06-22T03:05:24;83.97;;;75.85;;
45274;SDS011;31019;43.780;25.948;2023-06-22T03:07:52;85.60;;;76.95;;
45274;SDS011;31019;43.780;25.948;2023-06-22T03:10:19;86.68;;;78.28;;
45274;SDS011;31019;43.780;25.948;2023-06-22T03:12:46;82.97;;;74.88;;
45274;SDS011;31019;43.780;25.948;2023-06-22T03:15:13;91.43;;;82.72;;
45274;SDS011;31019;43.780;25.948;2023-06-22T03:17:40;87.25;;;78.30;;
45274;SDS011;31019;43.780;25.948;2023-06-22T03:20:07;179.65;;;166.45;;
45274;SDS011;31019;43.780;25.948;2023-06-22T03:22:35;169.77;;;157.27;;
45274;SDS011;31019;43.780;25.948;2023-06-22T03:25:04;171.77;;;159.10;;
45274;SDS011;31019;43.780;25.948;2023-06-22T03:27:35;166.98;;;154.65;;
45274;SDS011;31019;43.780;25.948;2023-06-22T03:30:03;175.10;;;162.30;;
45274;SDS011;31019;43.780;25.948;2023-06-22T03:32:30;162.85;;;150.85;;
45274;SDS011;31019;43.780;25.948;2023-06-22T03:34:57;183.30;;;170.55;;
45274;SDS011;31019;43.780;25.948;2023-06-22T03:37:24;164.00;;;151.73;;
45274;SDS011;31019;43.780;25.948;2023-06-22T03:39:51;132.88;;;123.43;;
45274;SDS011;31019;43.780;25.948;2023-06-22T03:42:19;129.45;;;120.32;;
45274;SDS011;31019;43.780;25.948;2023-06-22T03:44:46;90.72;;;81.90;;
45274;SDS011;31019;43.780;25.948;2023-06-22T03:47:13;91.38;;;82.18;;
45274;SDS011;31019;43.780;25.948;2023-06-22T03:49:44;87.97;;;79.03;;
45274;SDS011;31019;43.780;25.948;2023-06-22T03:52:11;92.88;;;84.05;;
45274;SDS011;31019;43.780;25.948;2023-06-22T03:54:38;90.40;;;81.85;;
45274;SDS011;31019;43.780;25.948;2023-06-22T03:57:05;97.70;;;88.93;;
45274;SDS011;31019;43.780;25.948;2023-06-22T03:59:33;97.38;;;88.32;;
45274;SDS011;31019;43.780;25.948;2023-06-22T04:02:00;87.20;;;79.32;;
45274;SDS011;31019;43.780;25.948;2023-06-22T04:04:27;92.45;;;83.97;;
45274;SDS011;31019;43.780;25.948;2023-06-22T04:06:54;92.95;;;84.28;;
45274;SDS011;31019;43.780;25.948;2023-06-22T04:09:21;89.60;;;81.47;;
45274;SDS011;31019;43.780;25.948;2023-06-22T04:11:48;92.10;;;83.50;;
45274;SDS011;31019;43.780;25.948;2023-06-22T04:14:15;96.97;;;87.68;;
45274;SDS011;31019;43.780;25.948;2023-06-22T04:16:43;98.80;;;89.55;;
45274;SDS011;31019;43.780;25.948;2023-06-22T04:19:10;108.28;;;98.40;;
45274;SDS011;31019;43.780;25.948;2023-06-22T04:21:41;107.20;;;97.10;;
45274;SDS011;31019;43.780;25.948;2023-06-22T04:24:09;112.10;;;101.60;;
45274;SDS011;31019;43.780;25.948;2023-06-22T04:26:36;114.55;;;104.53;;
45274;SDS011;31019;43.780;25.948;2023-06-22T04:29:03;116.95;;;106.85;;
45274;SDS011;31019;43.780;25.948;2023-06-22T04:31:31;116.38;;;106.25;;
45274;SDS011;31019;43.780;25.948;2023-06-22T04:34:03;112.30;;;102.35;;
45274;SDS011;31019;43.780;25.948;2023-06-22T04:36:34;120.07;;;109.70;;
45274;SDS011;31019;43.780;25.948;2023-06-22T04:39:03;114.80;;;105.07;;
45274;SDS011;31019;43.780;25.948;2023-06-22T04:41:31;127.78;;;117.28;;
45274;SDS011;31019;43.780;25.948;2023-06-22T04:44:11;124.38;;;113.78;;
45274;SDS011;31019;43.780;25.948;2023-06-22T04:46:38;122.97;;;112.63;;
45274;SDS011;31019;43.780;25.948;2023-06-22T04:49:08;115.43;;;105.55;;
45274;SDS011;31019;43.780;25.948;2023-06-22T04:51:39;121.85;;;111.65;;
45274;SDS011;31019;43.780;25.948;2023-06-22T04:54:07;124.18;;;113.43;;
45274;SDS011;31019;43.780;25.948;2023-06-22T04:56:34;120.80;;;110.45;;
45274;SDS011;31019;43.780;25.948;2023-06-22T04:59:01;125.25;;;114.90;;
45274;SDS011;31019;43.780;25.948;2023-06-22T05:01:29;116.82;;;107.15;;
45274;SDS011;31019;43.780;25.948;2023-06-22T05:03:57;116.82;;;107.00;;
45274;SDS011;31019;43.780;25.948;2023-06-22T05:06:27;124.47;;;114.30;;
45274;SDS011;31019;43.780;25.948;2023-06-22T05:08:54;124.72;;;114.47;;
45274;SDS011;31019;43.780;25.948;2023-06-22T05:11:23;127.88;;;117.47;;
45274;SDS011;31019;43.780;25.948;2023-06-22T05:13:50;126.25;;;116.22;;
45274;SDS011;31019;43.780;25.948;2023-06-22T05:16:17;125.25;;;115.15;;
45274;SDS011;31019;43.780;25.948;2023-06-22T05:18:49;127.97;;;117.68;;
45274;SDS011;31019;43.780;25.948;2023-06-22T05:21:24;129.88;;;119.50;;
45274;SDS011;31019;43.780;25.948;2023-06-22T05:23:53;126.60;;;116.10;;
45274;SDS011;31019;43.780;25.948;2023-06-22T05:26:21;127.78;;;117.20;;
45274;SDS011;31019;43.780;25.948;2023-06-22T05:31:20;110.72;;;101.82;;
45274;SDS011;31019;43.780;25.948;2023-06-22T05:33:48;120.22;;;110.80;;
45274;SDS011;31019;43.780;25.948;2023-06-22T05:36:15;115.03;;;105.63;;
45274;SDS011;31019;43.780;25.948;2023-06-22T05:38:43;109.35;;;100.80;;
45274;SDS011;31019;43.780;25.948;2023-06-22T05:41:14;112.60;;;103.88;;
45274;SDS011;31019;43.780;25.948;2023-06-22T05:43:41;103.97;;;95.80;;
45274;SDS011;31019;43.780;25.948;2023-06-22T05:46:10;47.58;;;43.67;;
45274;SDS011;31019;43.780;25.948;2023-06-22T05:48:37;40.00;;;36.72;;
45274;SDS011;31019;43.780;25.948;2023-06-22T05:51:06;36.60;;;33.58;;
45274;SDS011;31019;43.780;25.948;2023-06-22T05:53:33;32.70;;;29.67;;
45274;SDS011;31019;43.780;25.948;2023-06-22T05:56:00;35.10;;;32.35;;
45274;SDS011;31019;43.780;25.948;2023-06-22T05:58:28;35.28;;;32.28;;
45274;SDS011;31019;43.780;25.948;2023-06-22T06:00:58;35.72;;;32.63;;
45274;SDS011;31019;43.780;25.948;2023-06-22T06:03:25;34.60;;;31.83;;
45274;SDS011;31019;43.780;25.948;2023-06-22T06:05:53;32.60;;;29.85;;
45274;SDS011;31019;43.780;25.948;2023-06-22T06:08:20;33.95;;;31.15;;
45274;SDS011;31019;43.780;25.948;2023-06-22T06:10:47;32.25;;;29.55;;
45274;SDS011;31019;43.780;25.948;2023-06-22T06:13:16;32.33;;;29.50;;
45274;SDS011;31019;43.780;25.948;2023-06-22T06:15:44;32.80;;;30.20;;
45274;SDS011;31019;43.780;25.948;2023-06-22T06:18:11;29.95;;;27.45;;
45274;SDS011;31019;43.780;25.948;2023-06-22T06:20:38;29.27;;;26.98;;
45274;SDS011;31019;43.780;25.948;2023-06-22T06:23:05;29.95;;;27.35;;
45274;SDS011;31019;43.780;25.948;2023-06-22T06:25:32;28.95;;;26.75;;
45274;SDS011;31019;43.780;25.948;2023-06-22T06:27:58;27.75;;;25.50;;
45274;SDS011;31019;43.780;25.948;2023-06-22T06:30:25;27.98;;;25.85;;
45274;SDS011;31019;43.780;25.948;2023-06-22T06:32:54;23.70;;;21.80;;
45274;SDS011;31019;43.780;25.948;2023-06-22T06:35:21;25.80;;;23.85;;
45274;SDS011;31019;43.780;25.948;2023-06-22T06:37:48;26.35;;;24.13;;
45274;SDS011;31019;43.780;25.948;2023-06-22T06:40:17;23.52;;;21.52;;
45274;SDS011;31019;43.780;25.948;2023-06-22T06:42:46;23.67;;;21.80;;
45274;SDS011;31019;43.780;25.948;2023-06-22T06:45:15;24.88;;;22.83;;
45274;SDS011;31019;43.780;25.948;2023-06-22T06:47:43;23.58;;;21.63;;
45274;SDS011;31019;43.780;25.948;2023-06-22T06:50:15;27.10;;;24.90;;
45274;SDS011;31019;43.780;25.948;2023-06-22T06:55:09;30.02;;;27.25;;
45274;SDS011;31019;43.780;25.948;2023-06-22T06:57:40;30.02;;;27.35;;
45274;SDS011;31019;43.780;25.948;2023-06-22T07:00:08;28.88;;;26.38;;
45274;SDS011;31019;43.780;25.948;2023-06-22T07:02:39;28.05;;;25.65;;
45274;SDS011;31019;43.780;25.948;2023-06-22T07:05:07;28.35;;;26.05;;
45274;SDS011;31019;43.780;25.948;2023-06-22T07:07:36;25.98;;;23.88;;
45274;SDS011;31019;43.780;25.948;2023-06-22T07:10:03;27.77;;;25.38;;
45274;SDS011;31019;43.780;25.948;2023-06-22T07:12:31;29.88;;;27.38;;
45274;SDS011;31019;43.780;25.948;2023-06-22T07:15:01;28.20;;;25.80;;
45274;SDS011;31019;43.780;25.948;2023-06-22T07:17:30;26.83;;;24.43;;
45274;SDS011;31019;43.780;25.948;2023-06-22T07:19:57;26.48;;;24.38;;
45274;SDS011;31019;43.780;25.948;2023-06-22T07:22:24;26.58;;;24.48;;
45274;SDS011;31019;43.780;25.948;2023-06-22T07:24:52;26.23;;;24.13;;
45274;SDS011;31019;43.780;25.948;2023-06-22T07:27:19;26.98;;;24.50;;
45274;SDS011;31019;43.780;25.948;2023-06-22T07:29:46;25.52;;;23.65;;
45274;SDS011;31019;43.780;25.948;2023-06-22T07:32:13;24.08;;;22.38;;
45274;SDS011;31019;43.780;25.948;2023-06-22T07:34:43;26.52;;;24.52;;
45274;SDS011;31019;43.780;25.948;2023-06-22T07:37:18;25.65;;;23.73;;
45274;SDS011;31019;43.780;25.948;2023-06-22T07:39:45;28.35;;;26.20;;
45274;SDS011;31019;43.780;25.948;2023-06-22T07:42:13;27.80;;;25.80;;
45274;SDS011;31019;43.780;25.948;2023-06-22T07:44:43;24.83;;;23.02;;
45274;SDS011;31019;43.780;25.948;2023-06-22T07:47:13;34.35;;;32.25;;
45274;SDS011;31019;43.780;25.948;2023-06-22T07:49:42;33.33;;;31.40;;
45274;SDS011;31019;43.780;25.948;2023-06-22T07:52:09;35.15;;;32.85;;
45274;SDS011;31019;43.780;25.948;2023-06-22T07:54:39;36.50;;;34.22;;
45274;SDS011;31019;43.780;25.948;2023-06-22T07:57:06;31.45;;;29.15;;
45274;SDS011;31019;43.780;25.948;2023-06-22T07:59:34;30.85;;;28.73;;
45274;SDS011;31019;43.780;25.948;2023-06-22T08:02:01;33.85;;;31.75;;
45274;SDS011;31019;43.780;25.948;2023-06-22T08:04:29;33.13;;;30.92;;
45274;SDS011;31019;43.780;25.948;2023-06-22T08:06:59;34.47;;;32.25;;
45274;SDS011;31019;43.780;25.948;2023-06-22T08:09:27;34.80;;;32.50;;
45274;SDS011;31019;43.780;25.948;2023-06-22T08:11:54;31.40;;;29.02;;
45274;SDS011;31019;43.780;25.948;2023-06-22T08:14:22;31.15;;;28.80;;
45274;SDS011;31019;43.780;25.948;2023-06-22T08:16:50;30.95;;;28.63;;
45274;SDS011;31019;43.780;25.948;2023-06-22T08:19:17;32.88;;;30.40;;
45274;SDS011;31019;43.780;25.948;2023-06-22T08:21:44;33.55;;;31.35;;
45274;SDS011;31019;43.780;25.948;2023-06-22T08:24:11;32.40;;;29.85;;
45274;SDS011;31019;43.780;25.948;2023-06-22T08:26:38;30.77;;;28.58;;
45274;SDS011;31019;43.780;25.948;2023-06-22T08:29:05;33.13;;;30.50;;
45274;SDS011;31019;43.780;25.948;2023-06-22T08:31:32;31.88;;;29.67;;
45274;SDS011;31019;43.780;25.948;2023-06-22T08:34:01;29.88;;;27.83;;
45274;SDS011;31019;43.780;25.948;2023-06-22T08:36:28;32.20;;;29.80;;
45274;SDS011;31019;43.780;25.948;2023-06-22T08:38:57;34.08;;;31.98;;
45274;SDS011;31019;43.780;25.948;2023-06-22T08:41:27;30.42;;;28.52;;
45274;SDS011;31019;43.780;25.948;2023-06-22T08:43:55;36.38;;;34.17;;
45274;SDS011;31019;43.780;25.948;2023-06-22T08:46:22;37.08;;;34.88;;
45274;SDS011;31019;43.780;25.948;2023-06-22T08:48:55;36.53;;;34.10;;
45274;SDS011;31019;43.780;25.948;2023-06-22T08:51:24;33.47;;;31.38;;
45274;SDS011;31019;43.780;25.948;2023-06-22T08:53:51;34.05;;;31.95;;
45274;SDS011;31019;43.780;25.948;2023-06-22T08:56:18;30.17;;;28.08;;
45274;SDS011;31019;43.780;25.948;2023-06-22T08:58:45;30.17;;;27.83;;
45274;SDS011;31019;43.780;25.948;2023-06-22T09:01:12;28.75;;;26.85;;
45274;SDS011;31019;43.780;25.948;2023-06-22T09:03:40;25.27;;;23.23;;
45274;SDS011;31019;43.780;25.948;2023-06-22T09:06:07;24.33;;;22.52;;
45274;SDS011;31019;43.780;25.948;2023-06-22T09:08:37;26.02;;;24.02;;
45274;SDS011;31019;43.780;25.948;2023-06-22T09:11:04;30.08;;;28.08;;
45274;SDS011;31019;43.780;25.948;2023-06-22T09:13:33;29.20;;;27.20;;
45274;SDS011;31019;43.780;25.948;2023-06-22T09:16:00;30.20;;;28.10;;
45274;SDS011;31019;43.780;25.948;2023-06-22T09:18:27;30.17;;;28.05;;
45274;SDS011;31019;43.780;25.948;2023-06-22T09:20:54;32.28;;;29.77;;
45274;SDS011;31019;43.780;25.948;2023-06-22T09:23:22;33.22;;;30.88;;
45274;SDS011;31019;43.780;25.948;2023-06-22T09:25:51;30.83;;;28.27;;
45274;SDS011;31019;43.780;25.948;2023-06-22T09:28:18;35.28;;;32.97;;
45274;SDS011;31019;43.780;25.948;2023-06-22T09:30:45;35.80;;;33.08;;
45274;SDS011;31019;43.780;25.948;2023-06-22T09:33:12;34.45;;;32.05;;
45274;SDS011;31019;43.780;25.948;2023-06-22T09:35:41;34.78;;;32.28;;
45274;SDS011;31019;43.780;25.948;2023-06-22T09:38:08;28.55;;;26.23;;
45274;SDS011;31019;43.780;25.948;2023-06-22T09:40:36;28.13;;;25.67;;
45274;SDS011;31019;43.780;25.948;2023-06-22T09:43:06;28.58;;;26.27;;
45274;SDS011;31019;43.780;25.948;2023-06-22T09:45:34;27.38;;;25.27;;
45274;SDS011;31019;43.780;25.948;2023-06-22T09:48:01;26.33;;;24.33;;
45274;SDS011;31019;43.780;25.948;2023-06-22T09:50:28;26.48;;;24.48;;
45274;SDS011;31019;43.780;25.948;2023-06-22T09:52:55;26.58;;;24.50;;
45274;SDS011;31019;43.780;25.948;2023-06-22T09:55:22;28.23;;;26.10;;
45274;SDS011;31019;43.780;25.948;2023-06-22T09:57:49;27.73;;;25.63;;
45274;SDS011;31019;43.780;25.948;2023-06-22T10:00:18;27.40;;;25.05;;
45274;SDS011;31019;43.780;25.948;2023-06-22T10:02:46;29.85;;;27.65;;
45274;SDS011;31019;43.780;25.948;2023-06-22T10:05:14;28.27;;;26.08;;
45274;SDS011;31019;43.780;25.948;2023-06-22T10:07:41;27.13;;;24.73;;
45274;SDS011;31019;43.780;25.948;2023-06-22T10:10:09;27.63;;;25.45;;
45274;SDS011;31019;43.780;25.948;2023-06-22T10:12:36;28.70;;;26.50;;
45274;SDS011;31019;43.780;25.948;2023-06-22T10:15:09;30.45;;;27.92;;
45274;SDS011;31019;43.780;25.948;2023-06-22T10:17:38;26.05;;;23.85;;
45274;SDS011;31019;43.780;25.948;2023-06-22T10:20:05;27.65;;;25.35;;
45274;SDS011;31019;43.780;25.948;2023-06-22T10:22:37;28.45;;;26.00;;
45274;SDS011;31019;43.780;25.948;2023-06-22T10:25:05;27.95;;;25.65;;
45274;SDS011;31019;43.780;25.948;2023-06-22T10:27:32;28.90;;;26.40;;
45274;SDS011;31019;43.780;25.948;2023-06-22T10:30:00;28.30;;;26.08;;
45274;SDS011;31019;43.780;25.948;2023-06-22T10:32:27;31.30;;;28.48;;
45274;SDS011;31019;43.780;25.948;2023-06-22T10:34:55;29.83;;;27.42;;
45274;SDS011;31019;43.780;25.948;2023-06-22T10:37:22;28.85;;;26.30;;
45274;SDS011;31019;43.780;25.948;2023-06-22T10:39:49;27.08;;;25.08;;
45274;SDS011;31019;43.780;25.948;2023-06-22T10:42:16;26.27;;;24.23;;
45274;SDS011;31019;43.780;25.948;2023-06-22T10:44:43;26.92;;;24.55;;
45274;SDS011;31019;43.780;25.948;2023-06-22T10:47:14;28.52;;;25.98;;
45274;SDS011;31019;43.780;25.948;2023-06-22T10:49:41;26.52;;;24.42;;
45274;SDS011;31019;43.780;25.948;2023-06-22T10:52:09;29.02;;;26.75;;
45274;SDS011;31019;43.780;25.948;2023-06-22T10:54:37;36.42;;;33.53;;
45274;SDS011;31019;43.780;25.948;2023-06-22T10:57:05;36.42;;;33.70;;
45274;SDS011;31019;43.780;25.948;2023-06-22T10:59:32;37.90;;;35.10;;
45274;SDS011;31019;43.780;25.948;2023-06-22T11:02:00;37.03;;;34.42;;
45274;SDS011;31019;43.780;25.948;2023-06-22T11:04:27;34.90;;;32.50;;
45274;SDS011;31019;43.780;25.948;2023-06-22T11:06:54;37.75;;;35.05;;
45274;SDS011;31019;43.780;25.948;2023-06-22T11:09:22;39.05;;;36.25;;
45274;SDS011;31019;43.780;25.948;2023-06-22T11:11:52;39.97;;;36.60;;
45274;SDS011;31019;43.780;25.948;2023-06-22T11:14:19;33.17;;;30.67;;
45274;SDS011;31019;43.780;25.948;2023-06-22T11:16:46;25.65;;;23.38;;
45274;SDS011;31019;43.780;25.948;2023-06-22T11:19:13;27.13;;;24.77;;
45274;SDS011;31019;43.780;25.948;2023-06-22T11:21:40;27.15;;;25.08;;
45274;SDS011;31019;43.780;25.948;2023-06-22T11:24:07;28.33;;;25.92;;
45274;SDS011;31019;43.780;25.948;2023-06-22T11:26:35;27.65;;;25.40;;
45274;SDS011;31019;43.780;25.948;2023-06-22T11:29:02;28.00;;;25.70;;
45274;SDS011;31019;43.780;25.948;2023-06-22T11:31:30;26.30;;;24.27;;
45274;SDS011;31019;43.780;25.948;2023-06-22T11:33:57;26.08;;;24.08;;
45274;SDS011;31019;43.780;25.948;2023-06-22T11:36:24;28.05;;;25.50;;
45274;SDS011;31019;43.780;25.948;2023-06-22T11:38:52;28.77;;;26.33;;
45274;SDS011;31019;43.780;25.948;2023-06-22T11:41:19;28.42;;;26.23;;
45274;SDS011;31019;43.780;25.948;2023-06-22T11:43:47;28.40;;;26.10;;
45274;SDS011;31019;43.780;25.948;2023-06-22T11:46:14;27.05;;;25.05;;
45274;SDS011;31019;43.780;25.948;2023-06-22T11:48:41;25.30;;;23.35;;
45274;SDS011;31019;43.780;25.948;2023-06-22T11:51:08;24.80;;;23.00;;
45274;SDS011;31019;43.780;25.948;2023-06-22T11:53:35;25.67;;;23.55;;
45274;SDS011;31019;43.780;25.948;2023-06-22T11:56:02;27.13;;;24.92;;
45274;SDS011;31019;43.780;25.948;2023-06-22T11:58:30;26.42;;;24.33;;
45274;SDS011;31019;43.780;25.948;2023-06-22T12:00:58;27.92;;;25.70;;
45274;SDS011;31019;43.780;25.948;2023-06-22T12:06:30;25.60;;;23.40;;
45274;SDS011;31019;43.780;25.948;2023-06-22T12:08:57;26.92;;;24.85;;
45274;SDS011;31019;43.780;25.948;2023-06-22T12:11:25;27.05;;;24.90;;
45274;SDS011;31019;43.780;25.948;2023-06-22T12:13:52;26.17;;;24.27;;
45274;SDS011;31019;43.780;25.948;2023-06-22T12:16:21;27.80;;;25.60;;
45274;SDS011;31019;43.780;25.948;2023-06-22T12:18:50;29.55;;;27.17;;
45274;SDS011;31019;43.780;25.948;2023-06-22T12:21:17;28.52;;;25.77;;
45274;SDS011;31019;43.780;25.948;2023-06-22T12:23:44;24.95;;;22.92;;
45274;SDS011;31019;43.780;25.948;2023-06-22T12:26:11;24.90;;;22.90;;
45274;SDS011;31019;43.780;25.948;2023-06-22T12:28:37;25.38;;;23.17;;
45274;SDS011;31019;43.780;25.948;2023-06-22T12:31:04;25.48;;;23.33;;
45274;SDS011;31019;43.780;25.948;2023-06-22T12:33:32;26.80;;;24.63;;
45274;SDS011;31019;43.780;25.948;2023-06-22T12:35:59;27.13;;;25.00;;
45274;SDS011;31019;43.780;25.948;2023-06-22T12:38:26;26.20;;;24.40;;
45274;SDS011;31019;43.780;25.948;2023-06-22T12:40:56;26.35;;;24.15;;
45274;SDS011;31019;43.780;25.948;2023-06-22T12:43:23;26.52;;;24.52;;
45274;SDS011;31019;43.780;25.948;2023-06-22T12:45:50;25.45;;;23.38;;
45274;SDS011;31019;43.780;25.948;2023-06-22T12:48:18;25.48;;;23.48;;
45274;SDS011;31019;43.780;25.948;2023-06-22T12:50:46;28.38;;;25.92;;
45274;SDS011;31019;43.780;25.948;2023-06-22T12:53:14;26.77;;;24.52;;
45274;SDS011;31019;43.780;25.948;2023-06-22T12:55:41;26.55;;;24.35;;
45274;SDS011;31019;43.780;25.948;2023-06-22T12:58:08;24.63;;;22.63;;
45274;SDS011;31019;43.780;25.948;2023-06-22T13:00:35;25.08;;;22.88;;
45274;SDS011;31019;43.780;25.948;2023-06-22T13:03:01;25.63;;;23.63;;
45274;SDS011;31019;43.780;25.948;2023-06-22T13:05:29;24.10;;;22.10;;
45274;SDS011;31019;43.780;25.948;2023-06-22T13:07:57;25.05;;;23.05;;
45274;SDS011;31019;43.780;25.948;2023-06-22T13:10:24;25.67;;;23.67;;
45274;SDS011;31019;43.780;25.948;2023-06-22T13:12:53;26.38;;;24.27;;
45274;SDS011;31019;43.780;25.948;2023-06-22T13:15:25;38.22;;;34.63;;
45274;SDS011;31019;43.780;25.948;2023-06-22T13:17:52;26.77;;;24.55;;
45274;SDS011;31019;43.780;25.948;2023-06-22T13:20:20;26.45;;;24.52;;
45274;SDS011;31019;43.780;25.948;2023-06-22T13:22:47;26.60;;;24.45;;
45274;SDS011;31019;43.780;25.948;2023-06-22T13:25:15;26.95;;;24.73;;
45274;SDS011;31019;43.780;25.948;2023-06-22T13:27:44;25.83;;;23.85;;
45274;SDS011;31019;43.780;25.948;2023-06-22T13:30:11;25.88;;;23.70;;
45274;SDS011;31019;43.780;25.948;2023-06-22T13:32:38;25.50;;;23.27;;
45274;SDS011;31019;43.780;25.948;2023-06-22T13:35:07;27.10;;;24.90;;
45274;SDS011;31019;43.780;25.948;2023-06-22T13:37:34;26.17;;;23.98;;
45274;SDS011;31019;43.780;25.948;2023-06-22T13:40:01;26.20;;;24.17;;
45274;SDS011;31019;43.780;25.948;2023-06-22T13:42:32;25.85;;;23.42;;
45274;SDS011;31019;43.780;25.948;2023-06-22T13:44:59;25.40;;;23.33;;
45274;SDS011;31019;43.780;25.948;2023-06-22T13:47:26;25.50;;;23.08;;
45274;SDS011;31019;43.780;25.948;2023-06-22T13:49:53;25.17;;;23.05;;
45274;SDS011;31019;43.780;25.948;2023-06-22T13:52:20;25.20;;;23.10;;
45274;SDS011;31019;43.780;25.948;2023-06-22T13:54:47;26.08;;;23.88;;
45274;SDS011;31019;43.780;25.948;2023-06-22T13:57:14;25.65;;;23.38;;
45274;SDS011;31019;43.780;25.948;2023-06-22T13:59:42;26.15;;;24.15;;
45274;SDS011;31019;43.780;25.948;2023-06-22T14:02:09;27.75;;;25.42;;
45274;SDS011;31019;43.780;25.948;2023-06-22T14:04:36;27.58;;;25.38;;
45274;SDS011;31019;43.780;25.948;2023-06-22T14:07:04;29.38;;;27.15;;
45274;SDS011;31019;43.780;25.948;2023-06-22T14:09:31;28.75;;;26.27;;
45274;SDS011;31019;43.780;25.948;2023-06-22T14:12:01;30.33;;;28.23;;
45274;SDS011;31019;43.780;25.948;2023-06-22T14:14:29;29.58;;;27.40;;
45274;SDS011;31019;43.780;25.948;2023-06-22T14:16:57;30.35;;;28.08;;